createdAt,value
2018-12-01T00:00:59.710Z,18.87
2018-12-01T00:03:08.548Z,17.87
2018-12-01T00:05:35.850Z,19.80
2018-12-01T00:07:43.800Z,18.50
2018-12-01T00:09:51.815Z,20.07
2018-12-01T00:12:01.089Z,19.70
2018-12-01T00:14:09.054Z,19.13
2018-12-01T00:16:17.245Z,21.77
2018-12-01T00:18:25.298Z,18.43
2018-12-01T00:20:38.377Z,20.37
2018-12-01T00:22:47.377Z,17.87
2018-12-01T00:24:55.878Z,19.43
2018-12-01T00:27:03.947Z,19.00
2018-12-01T00:29:13.157Z,21.87
2018-12-01T00:31:21.354Z,19.00
2018-12-01T00:33:29.341Z,21.07
2018-12-01T00:35:37.651Z,20.10
2018-12-01T00:37:45.708Z,18.73
2018-12-01T00:39:53.740Z,20.80
2018-12-01T00:42:02.102Z,23.30
2018-12-01T00:44:10.151Z,22.60
2018-12-01T00:46:18.413Z,18.90
2018-12-01T00:48:26.476Z,29.00
2018-12-01T00:50:34.443Z,19.77
2018-12-01T00:52:42.543Z,17.70
2018-12-01T00:54:51.484Z,18.87
2018-12-01T00:56:59.426Z,22.00
2018-12-01T00:59:07.747Z,18.80
2018-12-01T01:01:15.698Z,21.97
2018-12-01T01:03:23.725Z,22.73
2018-12-01T01:05:32.849Z,18.80
2018-12-01T01:07:41.210Z,18.53
2018-12-01T01:09:49.297Z,22.03
2018-12-01T01:11:59.692Z,18.87
2018-12-01T01:14:16.882Z,22.40
2018-12-01T01:16:28.944Z,21.07
2018-12-01T01:18:37.064Z,20.40
2018-12-01T01:20:45.270Z,18.43
2018-12-01T01:22:53.769Z,18.73
2018-12-01T01:25:01.788Z,22.00
2018-12-01T01:27:09.827Z,19.57
2018-12-01T01:29:17.955Z,19.33
2018-12-01T01:31:27.025Z,21.10
2018-12-01T01:33:35.292Z,22.30
2018-12-01T01:35:44.054Z,20.60
2018-12-01T01:37:52.166Z,19.67
2018-12-01T01:40:00.579Z,19.10
2018-12-01T01:42:09.278Z,20.00
2018-12-01T01:44:17.236Z,18.73
2018-12-01T01:46:25.424Z,22.53
2018-12-01T01:48:33.389Z,25.40
2018-12-01T01:50:41.483Z,16.67
2018-12-01T01:52:49.989Z,19.57
2018-12-01T01:54:58.084Z,18.50
2018-12-01T01:57:07.172Z,19.80
2018-12-01T01:59:15.277Z,17.77
2018-12-01T02:01:23.365Z,20.00
2018-12-01T02:03:31.287Z,20.33
2018-12-01T02:05:39.573Z,16.27
2018-12-01T02:07:47.592Z,19.57
2018-12-01T02:09:55.547Z,15.30
2018-12-01T02:12:03.585Z,15.40
2018-12-01T02:14:12.034Z,17.73
2018-12-01T02:16:19.981Z,20.27
2018-12-01T02:18:28.927Z,18.33
2018-12-01T02:20:40.432Z,17.80
2018-12-01T02:22:46.278Z,15.30
2018-12-01T02:24:54.292Z,18.40
2018-12-01T02:27:02.256Z,14.83
2018-12-01T02:29:10.281Z,19.63
2018-12-01T02:31:18.335Z,15.80
2018-12-01T02:33:26.308Z,16.23
2018-12-01T02:35:35.474Z,13.50
2018-12-01T02:37:43.466Z,16.90
2018-12-01T02:39:51.403Z,18.60
2018-12-01T02:41:59.456Z,16.80
2018-12-01T02:45:00.736Z,14.83
2018-12-01T02:47:14.583Z,14.23
2018-12-01T02:49:22.604Z,15.40
2018-12-01T02:51:30.488Z,15.30
2018-12-01T02:53:38.529Z,16.90
2018-12-01T02:55:46.481Z,18.17
2018-12-01T02:57:54.843Z,17.47
2018-12-01T03:00:02.918Z,14.50
2018-12-01T03:02:10.963Z,15.10
2018-12-01T03:04:18.965Z,16.07
2018-12-01T03:06:26.870Z,14.43
2018-12-01T03:08:35.394Z,18.50
2018-12-01T03:10:43.457Z,16.17
2018-12-01T03:12:52.374Z,19.77
2018-12-01T03:15:00.671Z,19.10
2018-12-01T03:17:08.850Z,18.87
2018-12-01T03:19:17.118Z,15.10
2018-12-01T03:21:25.087Z,14.93
2018-12-01T03:23:33.114Z,12.80
2018-12-01T03:25:41.196Z,16.20
2018-12-01T03:27:50.068Z,14.03
2018-12-01T03:29:58.066Z,15.90
2018-12-01T03:32:06.026Z,13.70
2018-12-01T03:34:14.015Z,13.77
2018-12-01T03:36:21.995Z,15.03
2018-12-01T03:38:30.012Z,19.33
2018-12-01T03:45:06.519Z,20.63
2018-12-01T03:47:14.496Z,19.43
2018-12-01T03:49:22.546Z,14.57
2018-12-01T03:51:30.452Z,19.70
2018-12-01T03:53:38.397Z,17.43
2018-12-01T03:55:46.353Z,14.87
2018-12-01T03:57:54.497Z,14.47
2018-12-01T04:00:02.540Z,19.33
2018-12-01T04:02:11.469Z,17.60
2018-12-01T04:04:19.443Z,16.10
2018-12-01T04:06:27.451Z,17.60
2018-12-01T04:08:35.399Z,16.80
2018-12-01T04:10:43.348Z,13.90
2018-12-01T04:12:51.522Z,17.90
2018-12-01T04:14:59.520Z,16.90
2018-12-01T04:17:07.799Z,13.77
2018-12-01T04:19:15.969Z,15.50
2018-12-01T04:21:23.965Z,16.80
2018-12-01T04:23:31.930Z,18.30
2018-12-01T04:25:39.869Z,14.53
2018-12-01T04:27:47.820Z,17.33
2018-12-01T04:29:55.739Z,17.00
2018-12-01T04:32:04.033Z,13.67
2018-12-01T04:34:13.001Z,19.53
2018-12-01T04:36:20.923Z,16.23
2018-12-01T04:38:28.947Z,15.60
2018-12-01T04:40:36.886Z,16.03
2018-12-01T04:42:46.569Z,18.20
2018-12-01T04:44:54.618Z,18.53
2018-12-01T04:47:02.535Z,15.20
2018-12-01T04:49:10.446Z,22.30
2018-12-01T04:51:18.467Z,16.90
2018-12-01T04:53:26.427Z,16.23
2018-12-01T04:55:34.442Z,17.00
2018-12-01T04:57:42.361Z,13.00
2018-12-01T04:59:50.407Z,14.90
2018-12-01T05:01:58.402Z,14.97
2018-12-01T05:04:06.399Z,16.63
2018-12-01T05:06:15.325Z,13.80
2018-12-01T05:08:23.268Z,14.77
2018-12-01T05:10:31.480Z,10.83
2018-12-01T05:12:39.493Z,16.10
2018-12-01T05:14:47.488Z,15.97
2018-12-01T05:16:55.452Z,11.93
2018-12-01T05:19:03.653Z,12.53
2018-12-01T05:21:11.570Z,11.57
2018-12-01T05:23:19.921Z,31.03
2018-12-01T05:25:27.904Z,12.60
2018-12-01T05:27:35.862Z,11.17
2018-12-01T05:29:44.041Z,12.67
2018-12-01T05:31:52.084Z,12.00
2018-12-01T05:34:00.011Z,12.97
2018-12-01T05:36:08.425Z,16.47
2018-12-01T05:38:17.235Z,14.07
2018-12-01T05:40:25.620Z,17.87
2018-12-01T05:42:33.595Z,15.23
2018-12-01T05:44:41.535Z,26.50
2018-12-01T05:46:49.651Z,14.73
2018-12-01T05:48:57.651Z,19.90
2018-12-01T05:51:05.717Z,15.03
2018-12-01T05:53:13.731Z,16.37
2018-12-01T05:55:22.368Z,12.80
2018-12-01T05:57:30.296Z,14.97
2018-12-01T05:59:38.235Z,17.37
2018-12-01T06:01:46.178Z,17.10
2018-12-01T06:03:54.165Z,15.20
2018-12-01T06:06:02.223Z,13.50
2018-12-01T06:08:10.640Z,17.27
2018-12-01T06:10:23.335Z,15.13
2018-12-01T06:12:31.302Z,17.10
2018-12-01T06:14:39.276Z,18.23
2018-12-01T06:16:47.283Z,15.83
2018-12-01T06:18:55.351Z,18.57
2018-12-01T06:21:03.636Z,20.83
2018-12-01T06:23:11.617Z,17.77
2018-12-01T06:25:24.153Z,15.07
2018-12-01T06:27:32.223Z,13.43
2018-12-01T06:29:40.260Z,23.77
2018-12-01T06:31:48.351Z,20.87
2018-12-01T06:33:56.498Z,18.67
2018-12-01T06:36:04.571Z,18.90
2018-12-01T06:38:12.597Z,17.27
2018-12-01T06:40:21.923Z,19.40
2018-12-01T06:42:29.900Z,19.90
2018-12-01T06:44:37.842Z,19.70
2018-12-01T06:46:45.901Z,17.20
2018-12-01T06:48:53.950Z,18.50
2018-12-01T06:51:01.930Z,24.17
2018-12-01T06:53:10.743Z,18.37
2018-12-01T06:55:18.807Z,19.90
2018-12-01T06:57:26.856Z,19.30
2018-12-01T06:59:34.889Z,16.67
2018-12-01T07:01:42.843Z,27.13
2018-12-01T07:03:50.857Z,17.17
2018-12-01T07:05:58.882Z,15.73
2018-12-01T07:08:07.040Z,18.00
2018-12-01T07:10:25.209Z,17.43
2018-12-01T07:12:35.592Z,22.70
2018-12-01T07:14:43.724Z,18.80
2018-12-01T07:16:51.695Z,20.30
2018-12-01T07:19:19.590Z,18.80
2018-12-01T07:21:28.191Z,21.37
2018-12-01T07:23:36.238Z,18.70
2018-12-01T07:25:44.233Z,20.67
2018-12-01T07:27:52.318Z,16.40
2018-12-01T07:30:01.213Z,19.30
2018-12-01T07:32:09.341Z,14.30
2018-12-01T07:34:17.312Z,16.73
2018-12-01T07:36:25.332Z,14.47
2018-12-01T07:38:33.316Z,17.50
2018-12-01T07:40:42.232Z,14.53
2018-12-01T07:42:50.364Z,13.70
2018-12-01T07:44:58.527Z,17.47
2018-12-01T07:47:06.797Z,14.20
2018-12-01T07:49:14.877Z,17.57
2018-12-01T07:51:23.071Z,21.60
2018-12-01T07:53:31.315Z,21.83
2018-12-01T07:55:39.277Z,16.40
2018-12-01T07:57:48.467Z,16.10
2018-12-01T07:59:56.633Z,20.77
2018-12-01T08:02:04.959Z,19.00
2018-12-01T08:04:12.997Z,15.13
2018-12-01T08:06:21.194Z,15.20
2018-12-01T08:08:29.225Z,16.80
2018-12-01T08:10:37.213Z,14.43
2018-12-01T08:12:46.128Z,18.03
2018-12-01T08:14:54.200Z,16.43
2018-12-01T08:17:02.237Z,17.50
2018-12-01T08:19:10.402Z,18.87
2018-12-01T08:21:18.659Z,19.13
2018-12-01T08:23:26.952Z,19.30
2018-12-01T08:25:34.954Z,17.00
2018-12-01T08:27:43.019Z,19.07
2018-12-01T08:29:51.069Z,20.63
2018-12-01T08:31:59.227Z,17.57
2018-12-01T08:34:08.910Z,28.27
2018-12-01T08:36:16.930Z,17.57
2018-12-01T08:38:24.943Z,19.07
2018-12-01T08:40:34.269Z,17.30
2018-12-01T08:42:42.340Z,20.33
2018-12-01T08:44:50.424Z,17.23
2018-12-01T08:46:58.513Z,20.43
2018-12-01T08:49:06.824Z,18.20
2018-12-01T08:51:15.008Z,21.80
2018-12-01T08:53:23.599Z,20.50
2018-12-01T08:55:31.562Z,17.77
2018-12-01T08:57:39.560Z,17.60
2018-12-01T08:59:47.686Z,16.23
2018-12-01T09:01:55.706Z,17.77
2018-12-01T09:04:05.324Z,16.77
2018-12-01T09:06:13.423Z,21.60
2018-12-01T09:08:21.851Z,18.87
2018-12-01T09:10:29.837Z,15.27
2018-12-01T09:12:38.818Z,14.77
2018-12-01T09:14:47.608Z,14.87
2018-12-01T09:16:55.585Z,12.97
2018-12-01T09:19:03.584Z,14.07
2018-12-01T09:21:12.263Z,14.30
2018-12-01T09:23:20.360Z,13.73
2018-12-01T09:25:28.647Z,11.47
2018-12-01T09:27:36.743Z,20.70
2018-12-01T09:29:44.721Z,11.50
2018-12-01T09:31:52.773Z,17.10
2018-12-01T09:34:00.722Z,18.67
2018-12-01T09:36:09.464Z,17.07
2018-12-01T09:38:17.674Z,16.50
2018-12-01T09:40:26.279Z,12.53
2018-12-01T09:42:34.562Z,10.03
2018-12-01T09:44:42.889Z,10.30
2018-12-01T09:46:53.758Z,13.67
2018-12-01T09:49:01.850Z,11.70
2018-12-01T09:51:09.966Z,15.20
2018-12-01T09:53:18.046Z,12.27
2018-12-01T09:55:32.812Z,9.10
2018-12-01T09:57:41.947Z,8.90
2018-12-01T09:59:50.019Z,13.80
2018-12-01T10:01:58.145Z,11.60
2018-12-01T10:04:06.666Z,11.50
2018-12-01T10:06:14.735Z,12.53
2018-12-01T10:08:22.737Z,10.73
2018-12-01T10:10:30.944Z,10.10
2018-12-01T10:12:38.925Z,10.00
2018-12-01T10:14:47.021Z,18.23
2018-12-01T10:16:55.164Z,13.63
2018-12-01T10:19:03.164Z,11.63
2018-12-01T10:21:12.149Z,14.17
2018-12-01T10:23:20.172Z,13.43
2018-12-01T10:25:28.911Z,13.13
2018-12-01T10:27:34.926Z,12.07
2018-12-01T10:29:43.027Z,13.30
2018-12-01T10:31:51.161Z,11.40
2018-12-01T10:33:59.224Z,13.30
2018-12-01T10:36:07.328Z,21.30
2018-12-01T10:38:20.077Z,14.67
2018-12-01T10:40:28.275Z,11.00
2018-12-01T10:42:36.324Z,8.80
2018-12-01T10:44:44.622Z,10.10
2018-12-01T10:46:53.278Z,12.47
2018-12-01T10:49:01.582Z,9.10
2018-12-01T10:51:09.684Z,9.93
2018-12-01T10:53:17.768Z,11.07
2018-12-01T10:55:36.703Z,9.67
2018-12-01T10:57:44.927Z,8.97
2018-12-01T10:59:52.967Z,9.73
2018-12-01T11:02:18.614Z,8.10
2018-12-01T11:04:39.634Z,8.90
2018-12-01T11:06:48.064Z,10.90
2018-12-01T11:08:56.175Z,8.87
2018-12-01T11:11:04.179Z,7.50
2018-12-01T11:13:12.326Z,10.30
2018-12-01T11:15:23.812Z,10.97
2018-12-01T11:17:32.777Z,6.30
2018-12-01T11:19:40.802Z,8.47
2018-12-01T11:21:48.816Z,9.83
2018-12-01T11:23:57.590Z,7.77
2018-12-01T11:26:05.620Z,10.73
2018-12-01T11:28:10.791Z,8.87
2018-12-01T11:30:20.257Z,5.20
2018-12-01T11:32:28.484Z,5.97
2018-12-01T11:34:36.573Z,7.60
2018-12-01T11:36:45.373Z,5.50
2018-12-01T11:38:53.522Z,7.80
2018-12-01T11:41:01.659Z,5.07
2018-12-01T11:43:11.112Z,6.63
2018-12-01T11:45:19.908Z,6.27
2018-12-01T11:47:28.272Z,9.73
2018-12-01T11:49:36.794Z,7.23
2018-12-01T11:51:44.846Z,5.90
2018-12-01T11:53:53.552Z,6.37
2018-12-01T11:56:01.568Z,7.57
2018-12-01T11:58:09.764Z,7.10
2018-12-01T12:00:22.896Z,4.77
2018-12-01T12:02:30.897Z,4.20
2018-12-01T12:04:38.848Z,8.30
2018-12-01T12:06:47.336Z,8.23
2018-12-01T12:08:55.456Z,7.47
2018-12-01T12:11:04.364Z,4.97
2018-12-01T12:13:12.491Z,4.07
2018-12-01T12:15:21.639Z,3.23
2018-12-01T12:17:30.820Z,6.40
2018-12-01T12:19:39.592Z,6.23
2018-12-01T12:21:47.894Z,3.30
2018-12-01T12:23:56.147Z,7.17
2018-12-01T12:26:04.672Z,12.57
2018-12-01T12:28:12.852Z,5.57
2018-12-01T12:30:25.973Z,5.53
2018-12-01T12:32:33.011Z,5.10
2018-12-01T12:34:41.195Z,6.27
2018-12-01T12:36:49.227Z,18.43
2018-12-01T12:38:58.291Z,6.50
2018-12-01T12:41:06.925Z,6.20
2018-12-01T12:43:15.826Z,7.13
2018-12-01T12:45:24.050Z,4.63
2018-12-01T12:47:33.043Z,5.07
2018-12-01T12:49:41.254Z,5.90
2018-12-01T12:51:49.449Z,4.70
2018-12-01T12:53:57.586Z,4.73
2018-12-01T12:56:05.652Z,5.67
2018-12-01T12:58:14.637Z,4.90
2018-12-01T13:00:26.765Z,5.70
2018-12-01T13:02:34.752Z,11.27
2018-12-01T13:04:42.924Z,10.33
2018-12-01T13:06:51.230Z,5.63
2018-12-01T13:08:59.225Z,5.63
2018-12-01T13:11:07.808Z,6.17
2018-12-01T13:13:15.813Z,3.80
2018-12-01T13:15:23.855Z,8.53
2018-12-01T13:17:32.003Z,4.40
2018-12-01T13:19:40.014Z,7.83
2018-12-01T13:21:48.277Z,5.17
2018-12-01T13:23:56.414Z,6.27
2018-12-01T13:26:04.719Z,5.10
2018-12-01T13:28:26.373Z,7.47
2018-12-01T13:30:31.954Z,4.90
2018-12-01T13:32:39.939Z,5.90
2018-12-01T13:34:48.002Z,3.33
2018-12-01T13:36:55.973Z,4.17
2018-12-01T13:39:04.072Z,3.60
2018-12-01T13:41:13.161Z,8.10
2018-12-01T13:43:21.222Z,7.23
2018-12-01T13:45:29.294Z,5.80
2018-12-01T13:47:37.355Z,7.53
2018-12-01T13:49:45.779Z,5.00
2018-12-01T13:51:53.758Z,4.53
2018-12-01T13:54:01.743Z,3.40
2018-12-01T13:56:09.843Z,8.10
2018-12-01T13:58:17.966Z,5.97
2018-12-01T14:00:29.843Z,4.90
2018-12-01T14:02:37.884Z,6.17
2018-12-01T14:04:45.858Z,5.10
2018-12-01T14:06:54.034Z,7.07
2018-12-01T14:09:02.048Z,5.27
2018-12-01T14:11:10.075Z,6.40
2018-12-01T14:13:18.377Z,5.90
2018-12-01T14:15:26.970Z,7.60
2018-12-01T14:17:35.251Z,5.00
2018-12-01T14:19:44.985Z,4.10
2018-12-01T14:21:53.644Z,5.30
2018-12-01T14:24:01.750Z,5.83
2018-12-01T14:26:09.956Z,8.10
2018-12-01T14:28:18.032Z,5.23
2018-12-01T14:30:26.339Z,9.07
2018-12-01T14:32:31.494Z,6.93
2018-12-01T14:34:40.222Z,6.43
2018-12-01T14:36:48.349Z,7.70
2018-12-01T14:38:56.440Z,4.80
2018-12-01T14:41:04.555Z,7.03
2018-12-01T14:43:12.857Z,7.93
2018-12-01T14:45:21.164Z,8.00
2018-12-01T14:47:29.231Z,8.87
2018-12-01T14:49:37.266Z,5.63
2018-12-01T14:51:45.328Z,4.90
2018-12-01T14:53:53.321Z,4.97
2018-12-01T14:56:02.526Z,9.13
2018-12-01T14:58:10.851Z,5.53
2018-12-01T15:00:26.210Z,5.50
2018-12-01T15:02:34.295Z,7.47
2018-12-01T15:04:42.508Z,5.50
2018-12-01T15:06:56.969Z,8.03
2018-12-01T15:09:06.906Z,8.20
2018-12-01T15:11:14.837Z,7.97
2018-12-01T15:13:22.951Z,5.60
2018-12-01T15:15:31.296Z,7.30
2018-12-01T15:17:39.491Z,10.90
2018-12-01T15:19:47.507Z,4.80
2018-12-01T15:21:56.735Z,7.73
2018-12-01T15:24:05.594Z,5.27
2018-12-01T15:26:13.652Z,7.90
2018-12-01T15:28:22.075Z,7.93
2018-12-01T15:30:31.374Z,6.97
2018-12-01T15:32:41.249Z,9.57
2018-12-01T15:34:49.417Z,8.50
2018-12-01T15:36:58.491Z,8.53
2018-12-01T15:39:11.326Z,11.10
2018-12-01T15:41:19.578Z,11.03
2018-12-01T15:43:27.852Z,17.63
2018-12-01T15:45:36.075Z,11.77
2018-12-01T15:47:44.369Z,15.30
2018-12-01T15:49:53.195Z,11.30
2018-12-01T15:52:01.248Z,15.20
2018-12-01T15:54:10.041Z,7.17
2018-12-01T15:56:18.068Z,7.40
2018-12-01T15:58:26.946Z,13.83
2018-12-01T16:00:35.168Z,10.90
2018-12-01T16:02:43.211Z,9.87
2018-12-01T16:04:51.352Z,11.80
2018-12-01T16:06:59.347Z,14.47
2018-12-01T16:09:10.755Z,9.97
2018-12-01T16:11:19.021Z,13.37
2018-12-01T16:13:28.417Z,6.87
2018-12-01T16:15:39.305Z,6.03
2018-12-01T16:17:47.323Z,5.10
2018-12-01T16:21:53.674Z,8.20
2018-12-01T16:24:01.616Z,8.07
2018-12-01T16:26:09.794Z,7.03
2018-12-01T16:28:18.055Z,6.70
2018-12-01T16:30:30.948Z,12.73
2018-12-01T16:32:38.895Z,7.97
2018-12-01T16:34:47.550Z,10.43
2018-12-01T16:36:56.471Z,8.00
2018-12-01T16:39:05.106Z,9.53
2018-12-01T16:41:25.455Z,9.27
2018-12-01T16:43:36.085Z,4.67
2018-12-01T16:45:45.190Z,8.60
2018-12-01T16:47:53.258Z,5.93
2018-12-01T16:50:01.277Z,6.03
2018-12-01T16:52:10.076Z,5.17
2018-12-01T16:54:18.775Z,6.90
2018-12-01T16:56:27.107Z,7.50
2018-12-01T16:58:35.570Z,6.00
2018-12-01T17:00:44.187Z,9.53
2018-12-01T17:02:59.940Z,5.93
2018-12-01T17:05:11.884Z,3.40
2018-12-01T17:07:20.206Z,5.37
2018-12-01T17:09:28.421Z,6.53
2018-12-01T17:11:36.997Z,4.20
2018-12-01T17:13:45.111Z,5.40
2018-12-01T17:15:53.151Z,4.60
2018-12-01T17:18:01.672Z,5.97
2018-12-01T17:20:12.988Z,7.60
2018-12-01T17:22:21.102Z,6.43
2018-12-01T17:24:30.955Z,8.87
2018-12-01T17:26:38.991Z,5.50
2018-12-01T17:28:47.106Z,6.80
2018-12-01T17:30:55.159Z,8.17
2018-12-01T17:33:04.383Z,11.50
2018-12-01T17:35:14.730Z,11.30
2018-12-01T17:37:22.766Z,15.33
2018-12-01T17:39:31.400Z,14.07
2018-12-01T17:41:39.432Z,18.40
2018-12-01T17:43:59.237Z,11.30
2018-12-01T17:46:08.303Z,12.40
2018-12-01T17:48:16.825Z,13.10
2018-12-01T17:50:24.918Z,11.47
2018-12-01T17:52:33.152Z,13.07
2018-12-01T17:54:41.195Z,18.87
2018-12-01T17:56:49.260Z,23.10
2018-12-01T17:58:57.318Z,31.10
2018-12-01T18:01:05.348Z,32.10
2018-12-01T18:03:13.424Z,28.30
2018-12-01T18:05:42.384Z,16.00
2018-12-01T18:07:50.453Z,17.47
2018-12-01T18:09:58.708Z,21.85
2018-12-01T18:12:07.027Z,16.97
2018-12-01T18:14:15.506Z,17.00
2018-12-01T18:16:23.631Z,14.40
2018-12-01T18:18:31.837Z,12.07
2018-12-01T18:20:39.890Z,17.17
2018-12-01T18:22:58.797Z,16.75
2018-12-01T18:25:08.673Z,15.53
2018-12-01T18:27:16.800Z,11.13
2018-12-01T18:29:24.878Z,10.63
2018-12-01T18:31:35.228Z,8.70
2018-12-01T18:33:46.481Z,11.22
2018-12-01T18:35:52.286Z,8.63
2018-12-01T18:38:00.453Z,7.70
2018-12-01T18:40:22.572Z,9.20
2018-12-01T18:42:30.575Z,10.97
2018-12-01T18:44:41.809Z,9.00
2018-12-01T18:46:50.864Z,11.43
2018-12-01T18:48:59.006Z,8.00
2018-12-01T18:51:07.207Z,8.83
2018-12-01T18:53:15.474Z,12.67
2018-12-01T18:55:24.621Z,16.80
2018-12-01T18:57:32.656Z,9.00
2018-12-01T18:59:40.713Z,14.33
2018-12-01T19:01:51.358Z,10.60
2018-12-01T19:03:59.456Z,14.97
2018-12-01T19:06:08.282Z,12.33
2018-12-01T19:08:16.250Z,13.60
2018-12-01T19:10:24.522Z,12.47
2018-12-01T19:12:37.012Z,12.30
2018-12-01T19:14:48.164Z,22.65
2018-12-01T19:16:56.200Z,10.82
2018-12-01T19:19:04.219Z,13.20
2018-12-01T19:21:12.442Z,21.50
2018-12-01T19:23:21.339Z,31.97
2018-12-01T19:25:29.393Z,36.40
2018-12-01T19:27:37.529Z,31.87
2018-12-01T19:29:45.580Z,35.23
2018-12-01T19:31:54.026Z,52.43
2018-12-01T19:34:02.054Z,22.70
2018-12-01T19:36:10.813Z,22.25
2018-12-01T19:38:30.227Z,20.50
2018-12-01T19:40:38.359Z,26.35
2018-12-01T19:42:47.113Z,22.47
2018-12-01T19:44:55.136Z,24.75
2018-12-01T19:47:03.176Z,29.10
2018-12-01T19:49:11.269Z,25.70
2018-12-01T19:51:19.365Z,21.70
2018-12-01T19:53:27.510Z,16.53
2018-12-01T19:55:35.646Z,14.70
2018-12-01T19:57:44.803Z,16.75
2018-12-01T19:59:52.927Z,13.43
2018-12-01T20:02:01.112Z,11.90
2018-12-01T20:04:09.674Z,10.80
2018-12-01T20:06:17.785Z,17.43
2018-12-01T20:08:26.175Z,12.70
2018-12-01T20:10:57.377Z,10.18
2018-12-01T20:13:31.828Z,29.93
2018-12-01T20:15:45.523Z,17.10
2018-12-01T20:17:53.774Z,10.33
2018-12-01T20:20:01.807Z,14.13
2018-12-01T20:22:10.046Z,11.77
2018-12-01T20:24:18.997Z,13.50
2018-12-01T20:26:27.106Z,30.17
2018-12-01T20:28:35.318Z,95.37
2018-12-01T20:30:44.307Z,75.52
2018-12-01T20:32:52.418Z,52.97
2018-12-01T20:35:00.828Z,64.45
2018-12-01T20:37:05.921Z,63.57
2018-12-01T20:39:38.026Z,37.83
2018-12-01T20:41:46.142Z,28.50
2018-12-01T20:43:54.270Z,26.87
2018-12-01T20:46:02.383Z,26.53
2018-12-01T20:48:10.421Z,16.13
2018-12-01T20:50:19.277Z,11.70
2018-12-01T20:52:27.881Z,11.88
2018-12-01T20:54:45.073Z,8.93
2018-12-01T20:56:55.828Z,9.40
2018-12-01T20:59:03.921Z,11.70
2018-12-01T21:01:12.013Z,7.40
2018-12-01T21:03:20.963Z,6.37
2018-12-01T21:05:29.089Z,8.07
2018-12-01T21:07:37.535Z,6.30
2018-12-01T21:09:45.613Z,9.00
2018-12-01T21:11:53.681Z,8.07
2018-12-01T21:14:01.824Z,8.50
2018-12-01T21:16:10.410Z,13.10
2018-12-01T21:18:18.459Z,8.57
2018-12-01T21:20:27.396Z,8.50
2018-12-01T21:22:34.806Z,13.80
2018-12-01T21:24:43.118Z,10.93
2018-12-01T21:26:51.151Z,7.50
2018-12-01T21:28:59.294Z,10.10
2018-12-01T21:31:08.765Z,8.07
2018-12-01T21:33:22.766Z,11.43
2018-12-01T21:35:30.809Z,9.20
2018-12-01T21:37:39.415Z,7.03
2018-12-01T21:39:47.662Z,7.03
2018-12-01T21:41:55.705Z,8.67
2018-12-01T21:44:03.832Z,5.70
2018-12-01T21:46:11.906Z,8.80
2018-12-01T21:48:20.078Z,7.30
2018-12-01T21:50:28.129Z,7.37
2018-12-01T21:52:36.244Z,6.90
2018-12-01T21:54:44.647Z,8.20
2018-12-01T21:56:53.026Z,5.20
2018-12-01T21:59:01.027Z,5.10
2018-12-01T22:01:09.524Z,9.03
2018-12-01T22:03:18.705Z,6.57
2018-12-01T22:05:41.519Z,9.97
2018-12-01T22:07:49.989Z,5.87
2018-12-01T22:09:58.003Z,6.97
2018-12-01T22:12:06.814Z,9.67
2018-12-01T22:18:31.464Z,5.67
2018-12-01T22:20:39.800Z,6.17
2018-12-01T22:22:47.878Z,5.70
2018-12-01T22:24:55.990Z,5.73
2018-12-01T22:27:04.089Z,6.03
2018-12-01T22:29:12.288Z,6.20
2018-12-01T22:31:20.754Z,6.17
2018-12-01T22:33:31.998Z,4.50
2018-12-01T22:35:42.415Z,4.40
2018-12-01T22:37:51.379Z,6.00
2018-12-01T22:39:59.693Z,3.50
2018-12-01T22:42:07.822Z,6.67
2018-12-01T22:44:15.886Z,5.12
2018-12-01T22:50:41.806Z,14.03
2018-12-01T22:52:51.133Z,10.13
2018-12-01T22:55:00.174Z,16.47
2018-12-01T22:57:09.485Z,12.40
2018-12-01T22:59:17.678Z,9.30
2018-12-01T23:01:25.788Z,7.03
2018-12-01T23:03:38.013Z,8.00
2018-12-01T23:05:45.990Z,5.80
2018-12-01T23:08:00.537Z,5.57
2018-12-01T23:10:07.481Z,6.57
2018-12-01T23:12:15.446Z,6.10
2018-12-01T23:14:23.735Z,5.90
2018-12-01T23:16:31.709Z,5.60
2018-12-01T23:18:39.749Z,6.10
2018-12-01T23:20:49.762Z,7.07
2018-12-01T23:22:57.778Z,10.43
2018-12-01T23:25:06.182Z,6.23
2018-12-01T23:27:14.219Z,6.50
2018-12-01T23:29:22.394Z,12.33
2018-12-01T23:31:30.696Z,7.00
2018-12-01T23:33:38.670Z,11.43
2018-12-01T23:35:46.812Z,8.00
2018-12-01T23:37:55.433Z,6.40
2018-12-01T23:40:03.573Z,5.10
2018-12-01T23:42:11.582Z,8.57
2018-12-01T23:44:32.924Z,5.17
2018-12-01T23:46:41.047Z,5.87
2018-12-01T23:48:48.992Z,6.12
2018-12-01T23:50:58.920Z,6.13
2018-12-01T23:53:13.657Z,5.83
2018-12-01T23:59:40.988Z,6.90
